Terminal Aerodrome Forecast
Issued by NWS Charleston, WV

Home | Current Version | Previous Version | Text Only | Print | Product List | Glossary On
Versions: 1 2 3 4 5 6 7 8 9 10 11 12 13 14 15 16 17 18 19 20 21 22 23
000
FTUS41 KRLX 010220 AAA
TAFEKN
TAF AMD
KEKN 010220Z 0102/0124 27004KT P6SM SCT050
     FM010700 00000KT 5SM BR SCT060
     FM010900 00000KT 3SM BR SCT001 SCT060
     FM011000 00000KT 1/2SM FG VV001
     FM011200 VRB03KT 3SM BR SCT050
     FM011400 28005KT P6SM SCT040=

USA.gov is the U.S. government's official web portal to all federal, state and local government web resources and services.